createdAt,value
2023-03-12T00:01:30.662Z,1.08
2023-03-12T00:03:57.184Z,1.07
2023-03-12T00:06:23.558Z,1.03
2023-03-12T00:08:49.878Z,1.12
2023-03-12T00:11:17.410Z,0.81
2023-03-12T00:13:43.944Z,1.18
2023-03-12T00:16:12.109Z,1.15
2023-03-12T00:18:38.917Z,1.13
2023-03-12T00:21:06.133Z,1.17
2023-03-12T00:23:32.503Z,1.26
2023-03-12T00:26:02.660Z,1.21
2023-03-12T00:28:29.021Z,1.37
2023-03-12T00:30:57.168Z,1.21
2023-03-12T00:33:24.516Z,1.33
2023-03-12T00:35:50.860Z,1.26
2023-03-12T00:38:17.178Z,1.40
2023-03-12T00:40:43.815Z,1.25
2023-03-12T00:43:10.282Z,1.23
2023-03-12T00:45:36.862Z,1.38
2023-03-12T00:48:03.272Z,1.23
2023-03-12T00:50:29.575Z,1.44
2023-03-12T00:52:55.866Z,1.39
2023-03-12T00:55:22.522Z,1.39
2023-03-12T00:57:48.809Z,1.52
2023-03-12T01:00:15.288Z,1.49
2023-03-12T01:02:41.647Z,1.48
2023-03-12T01:05:08.724Z,1.61
2023-03-12T01:07:35.373Z,1.64
2023-03-12T01:10:01.867Z,1.54
2023-03-12T01:12:28.188Z,1.59
2023-03-12T01:14:54.469Z,1.59
2023-03-12T01:17:20.831Z,1.79
2023-03-12T01:19:47.117Z,1.72
2023-03-12T01:22:14.305Z,1.78
2023-03-12T01:24:40.756Z,1.78
2023-03-12T01:27:07.228Z,1.62
2023-03-12T01:29:33.536Z,1.63
2023-03-12T01:31:59.848Z,1.37
2023-03-12T01:34:26.210Z,1.49
2023-03-12T01:36:52.521Z,1.52
2023-03-12T01:39:18.878Z,1.53
2023-03-12T01:41:45.176Z,1.55
2023-03-12T01:44:14.002Z,1.47
2023-03-12T01:46:43.146Z,1.45
2023-03-12T01:49:09.418Z,1.48
2023-03-12T01:51:54.393Z,1.43
2023-03-12T01:54:23.482Z,1.45
2023-03-12T01:56:50.312Z,1.37
2023-03-12T01:59:28.539Z,1.30
2023-03-12T02:01:55.102Z,1.35
2023-03-12T02:04:22.588Z,1.31
2023-03-12T02:06:53.139Z,1.17
2023-03-12T02:09:20.211Z,1.14
2023-03-12T02:11:46.518Z,1.28
2023-03-12T02:14:12.937Z,1.19
2023-03-12T02:16:39.267Z,1.16
2023-03-12T02:19:11.396Z,1.21
2023-03-12T02:21:38.535Z,0.93
2023-03-12T02:24:10.896Z,1.01
2023-03-12T02:26:38.152Z,0.90
2023-03-12T02:29:04.549Z,0.92
2023-03-12T02:31:34.934Z,0.86
2023-03-12T02:34:01.357Z,0.76
2023-03-12T02:36:27.828Z,0.91
2023-03-12T02:38:54.804Z,0.89
2023-03-12T02:41:22.720Z,0.91
2023-03-12T02:43:57.954Z,0.93
2023-03-12T02:46:24.952Z,0.94
2023-03-12T02:48:51.553Z,0.80
2023-03-12T02:51:17.960Z,0.87
2023-03-12T02:53:44.324Z,0.71
2023-03-12T02:56:10.731Z,0.63
2023-03-12T02:58:37.518Z,0.44
2023-03-12T03:01:04.045Z,0.51
2023-03-12T03:03:30.312Z,0.63
2023-03-12T03:05:56.857Z,0.64
2023-03-12T03:08:23.850Z,0.70
2023-03-12T03:10:50.940Z,0.39
2023-03-12T03:13:17.268Z,0.46
2023-03-12T03:15:43.545Z,0.37
2023-03-12T03:18:09.847Z,0.47
2023-03-12T03:20:36.187Z,0.31
2023-03-12T03:23:02.625Z,0.43
2023-03-12T03:25:28.907Z,0.37
2023-03-12T03:27:55.295Z,0.19
2023-03-12T03:30:21.632Z,0.27
2023-03-12T03:32:48.793Z,-0.12
2023-03-12T03:35:15.154Z,0.13
2023-03-12T03:37:41.519Z,0.09
2023-03-12T03:40:11.665Z,0.27
2023-03-12T03:42:38.712Z,0.22
2023-03-12T03:45:05.852Z,0.38
2023-03-12T03:47:32.208Z,0.37
2023-03-12T03:49:58.508Z,0.20
2023-03-12T03:52:24.776Z,0.16
2023-03-12T03:54:51.116Z,0.43
2023-03-12T03:57:17.412Z,0.29
2023-03-12T03:59:43.672Z,0.27
2023-03-12T04:02:09.944Z,0.26
2023-03-12T04:04:36.280Z,0.00
2023-03-12T04:07:02.612Z,-0.10
2023-03-12T04:09:30.429Z,0.06
2023-03-12T04:11:56.751Z,-0.11
2023-03-12T04:14:23.080Z,0.13
2023-03-12T04:16:49.422Z,0.26
2023-03-12T04:19:15.774Z,0.36
2023-03-12T04:21:42.069Z,0.08
2023-03-12T04:24:12.899Z,0.03
2023-03-12T04:26:39.208Z,0.02
2023-03-12T04:29:05.518Z,0.05
2023-03-12T04:31:31.839Z,-0.16
2023-03-12T04:33:58.193Z,0.05
2023-03-12T04:36:24.548Z,0.10
2023-03-12T04:38:50.822Z,0.11
2023-03-12T04:41:17.619Z,0.11
2023-03-12T04:43:44.298Z,0.03
2023-03-12T04:46:10.921Z,0.20
2023-03-12T04:48:37.257Z,0.12
2023-03-12T04:51:04.477Z,0.10
2023-03-12T04:53:30.909Z,0.05
2023-03-12T04:55:57.280Z,-0.11
2023-03-12T04:58:23.633Z,0.06
2023-03-12T05:00:49.959Z,-0.10
2023-03-12T05:03:16.809Z,0.03
2023-03-12T05:05:43.187Z,0.18
2023-03-12T05:08:09.569Z,0.19
2023-03-12T05:10:35.986Z,0.31
2023-03-12T05:13:02.280Z,0.05
2023-03-12T05:15:28.613Z,-0.11
2023-03-12T05:17:55.072Z,0.13
2023-03-12T05:20:21.413Z,0.05
2023-03-12T05:22:47.752Z,0.16
2023-03-12T05:25:14.457Z,0.03
2023-03-12T05:27:40.774Z,-0.12
2023-03-12T05:30:07.464Z,-0.36
2023-03-12T05:32:33.877Z,-0.13
2023-03-12T05:35:00.194Z,-0.16
2023-03-12T05:37:26.523Z,-0.08
2023-03-12T05:39:53.988Z,-0.00
2023-03-12T05:42:20.283Z,-0.22
2023-03-12T05:44:46.627Z,-0.07
2023-03-12T05:47:12.914Z,-0.21
2023-03-12T05:49:39.216Z,-0.37
2023-03-12T05:52:05.857Z,-0.40
2023-03-12T05:54:32.274Z,-0.43
2023-03-12T05:56:59.071Z,-0.55
2023-03-12T05:59:25.422Z,-0.48
2023-03-12T06:01:51.773Z,-0.40
2023-03-12T06:04:18.072Z,-0.44
2023-03-12T06:06:44.360Z,-0.48
2023-03-12T06:09:10.696Z,-0.38
2023-03-12T06:11:36.995Z,-0.27
2023-03-12T06:14:03.784Z,-0.38
2023-03-12T06:16:30.248Z,-0.43
2023-03-12T06:19:00.924Z,-0.38
2023-03-12T06:21:29.146Z,-0.52
2023-03-12T06:23:55.545Z,-0.29
2023-03-12T06:26:22.329Z,-0.44
2023-03-12T06:28:49.611Z,-0.70
2023-03-12T06:31:16.222Z,-0.47
2023-03-12T06:33:42.633Z,-0.49
2023-03-12T06:36:09.815Z,-0.55
2023-03-12T06:38:36.658Z,-0.66
2023-03-12T06:41:04.927Z,-0.16
2023-03-12T06:43:33.663Z,-0.19
2023-03-12T06:46:00.912Z,-0.11
2023-03-12T06:48:28.018Z,-0.05
2023-03-12T06:50:54.534Z,0.07
2023-03-12T06:53:21.074Z,-0.05
2023-03-12T06:55:49.824Z,0.09
2023-03-12T06:58:16.396Z,0.01
2023-03-12T07:00:42.914Z,0.03
2023-03-12T07:03:09.278Z,0.13
2023-03-12T07:05:35.600Z,0.22
2023-03-12T07:08:01.960Z,0.11
2023-03-12T07:10:29.402Z,0.31
2023-03-12T07:12:56.735Z,0.18
2023-03-12T07:15:23.177Z,-0.04
2023-03-12T07:17:49.465Z,0.16
2023-03-12T07:20:15.875Z,0.27
2023-03-12T07:22:42.251Z,0.31
2023-03-12T07:25:08.960Z,0.41
2023-03-12T07:27:35.296Z,0.37
2023-03-12T07:30:01.887Z,0.47
2023-03-12T07:32:28.399Z,0.35
2023-03-12T07:34:54.740Z,0.58
2023-03-12T07:37:21.181Z,0.57
2023-03-12T07:39:51.206Z,0.60
2023-03-12T07:42:17.843Z,0.59
2023-03-12T07:44:44.198Z,0.70
2023-03-12T07:47:23.189Z,0.73
2023-03-12T07:49:50.255Z,0.59
2023-03-12T07:52:17.982Z,0.75
2023-03-12T07:54:44.386Z,0.91
2023-03-12T07:57:10.880Z,0.98
2023-03-12T07:59:37.384Z,1.00
2023-03-12T08:02:03.775Z,1.03
2023-03-12T08:04:30.306Z,1.09
2023-03-12T08:06:56.824Z,1.32
2023-03-12T08:09:23.242Z,1.29
2023-03-12T08:11:49.631Z,1.64
2023-03-12T08:14:16.056Z,1.51
2023-03-12T08:16:42.516Z,1.37
2023-03-12T08:19:08.876Z,1.86
2023-03-12T08:21:35.179Z,1.78
2023-03-12T08:24:01.565Z,1.51
2023-03-12T08:26:27.954Z,1.54
2023-03-12T08:28:54.262Z,1.71
2023-03-12T08:31:20.636Z,1.79
2023-03-12T08:33:46.983Z,1.76
2023-03-12T08:36:13.332Z,1.81
2023-03-12T08:38:39.654Z,1.88
2023-03-12T08:41:06.087Z,1.94
2023-03-12T08:43:32.433Z,2.19
2023-03-12T08:45:59.819Z,2.19
2023-03-12T08:48:26.529Z,2.53
2023-03-12T08:50:54.916Z,2.65
2023-03-12T08:53:21.264Z,2.61
2023-03-12T08:55:47.560Z,3.07
2023-03-12T08:58:13.886Z,2.76
2023-03-12T09:00:40.217Z,2.94
2023-03-12T09:03:06.711Z,3.12
2023-03-12T09:05:33.123Z,3.33
2023-03-12T09:07:59.411Z,2.97
2023-03-12T09:10:30.274Z,3.38
2023-03-12T09:12:57.131Z,3.54
2023-03-12T09:15:23.430Z,3.74
2023-03-12T09:17:50.607Z,3.71
2023-03-12T09:20:17.038Z,3.70
2023-03-12T09:22:43.412Z,3.77
2023-03-12T09:25:10.419Z,3.81
2023-03-12T09:27:37.650Z,3.78
2023-03-12T09:30:04.651Z,3.76
2023-03-12T09:32:31.099Z,3.85
2023-03-12T09:34:57.516Z,3.88
2023-03-12T09:37:24.476Z,3.92
2023-03-12T09:39:51.446Z,4.05
2023-03-12T09:42:25.791Z,4.03
2023-03-12T09:44:53.500Z,4.26
2023-03-12T09:47:25.982Z,4.03
2023-03-12T09:50:11.017Z,4.19
2023-03-12T09:52:44.579Z,4.17
2023-03-12T09:55:15.612Z,4.20
2023-03-12T09:57:42.873Z,4.13
2023-03-12T10:00:13.810Z,3.97
2023-03-12T10:02:40.142Z,4.17
2023-03-12T10:05:10.102Z,4.29
2023-03-12T10:07:42.869Z,4.27
2023-03-12T10:10:12.234Z,4.25
2023-03-12T10:12:41.580Z,4.44
2023-03-12T10:15:15.441Z,4.43
2023-03-12T10:17:44.871Z,4.29
2023-03-12T10:20:11.345Z,4.35
2023-03-12T10:22:53.016Z,4.43
2023-03-12T10:25:19.276Z,4.37
2023-03-12T10:27:45.706Z,4.56
2023-03-12T10:30:20.984Z,4.81
2023-03-12T10:32:49.486Z,4.70
2023-03-12T10:35:23.277Z,4.66
2023-03-12T10:37:58.881Z,4.68
2023-03-12T10:40:29.755Z,4.72
2023-03-12T10:42:56.320Z,4.51
2023-03-12T10:45:22.628Z,4.61
2023-03-12T10:47:51.996Z,4.51
2023-03-12T10:50:19.852Z,4.60
2023-03-12T10:52:47.797Z,4.63
2023-03-12T10:55:24.964Z,4.69
2023-03-12T10:57:51.825Z,4.69
2023-03-12T11:00:28.959Z,4.73
2023-03-12T11:03:15.532Z,4.71
2023-03-12T11:05:49.756Z,4.96
2023-03-12T11:08:21.017Z,4.88
2023-03-12T11:10:47.721Z,5.17
2023-03-12T11:13:22.953Z,5.23
2023-03-12T11:15:50.975Z,5.13
2023-03-12T11:18:20.510Z,5.34
2023-03-12T11:20:48.085Z,5.14
2023-03-12T11:23:22.099Z,5.39
2023-03-12T11:25:56.559Z,5.49
2023-03-12T11:28:24.689Z,5.38
2023-03-12T11:30:53.327Z,5.41
2023-03-12T11:33:19.703Z,5.37
2023-03-12T11:36:04.787Z,5.34
2023-03-12T11:38:34.851Z,5.19
2023-03-12T11:41:10.427Z,5.42
2023-03-12T11:43:57.008Z,5.35
2023-03-12T11:46:26.246Z,5.29
2023-03-12T11:48:55.588Z,5.25
2023-03-12T11:51:25.223Z,5.23
2023-03-12T11:54:09.610Z,5.29
2023-03-12T11:56:40.221Z,5.23
2023-03-12T11:59:25.206Z,5.45
2023-03-12T12:01:58.229Z,5.48
2023-03-12T12:04:43.255Z,5.53
2023-03-12T12:07:28.531Z,5.71
2023-03-12T12:09:54.839Z,5.70
2023-03-12T12:12:39.412Z,5.71
2023-03-12T12:15:11.830Z,6.00
2023-03-12T12:17:58.440Z,5.86
2023-03-12T12:20:43.958Z,5.95
2023-03-12T12:23:10.617Z,5.69
2023-03-12T12:25:57.629Z,5.76
2023-03-12T12:28:30.044Z,5.82
2023-03-12T12:30:59.460Z,5.92
2023-03-12T12:33:50.494Z,5.94
2023-03-12T12:36:17.518Z,5.87
2023-03-12T12:38:43.945Z,5.72
2023-03-12T12:41:22.952Z,5.77
2023-03-12T12:43:49.245Z,5.79
2023-03-12T12:46:17.983Z,5.64
2023-03-12T12:48:46.695Z,5.89
2023-03-12T12:51:14.712Z,5.83
2023-03-12T12:53:41.136Z,6.01
2023-03-12T12:56:15.593Z,5.93
2023-03-12T12:59:03.136Z,5.82
2023-03-12T13:01:30.613Z,5.94
2023-03-12T13:04:00.028Z,6.04
2023-03-12T13:06:28.946Z,5.84
2023-03-12T13:08:59.599Z,5.99
2023-03-12T13:11:30.251Z,6.03
2023-03-12T13:14:02.709Z,6.05
2023-03-12T13:16:33.982Z,5.76
2023-03-12T13:19:03.142Z,6.06
2023-03-12T13:21:34.885Z,6.14
2023-03-12T13:24:04.061Z,6.15
2023-03-12T13:26:30.345Z,6.08
2023-03-12T13:29:11.804Z,6.01
2023-03-12T13:31:39.728Z,5.92
2023-03-12T13:34:06.044Z,5.75
2023-03-12T13:36:36.316Z,5.79
2023-03-12T13:39:08.746Z,5.73
2023-03-12T13:41:35.038Z,5.45
2023-03-12T13:44:21.357Z,5.47
2023-03-12T13:46:47.975Z,5.44
2023-03-12T13:49:15.832Z,5.56
2023-03-12T13:51:47.155Z,5.43
2023-03-12T13:54:18.599Z,5.43
2023-03-12T13:56:56.088Z,5.29
2023-03-12T13:59:24.064Z,5.36
2023-03-12T14:01:53.785Z,5.19
2023-03-12T14:04:25.390Z,5.19
2023-03-12T14:07:10.110Z,5.39
2023-03-12T14:10:11.884Z,5.13
2023-03-12T14:12:50.040Z,5.14
2023-03-12T14:15:16.548Z,5.06
2023-03-12T14:17:43.830Z,5.28
2023-03-12T14:20:11.903Z,5.13
2023-03-12T14:22:39.152Z,5.07
2023-03-12T14:25:17.267Z,5.32
2023-03-12T14:27:45.342Z,5.18
2023-03-12T14:30:28.536Z,5.15
2023-03-12T14:32:56.921Z,5.29
2023-03-12T14:35:25.816Z,5.23
2023-03-12T14:37:52.120Z,4.81
2023-03-12T14:40:21.519Z,4.98
2023-03-12T14:42:48.064Z,4.97
2023-03-12T14:45:17.010Z,4.93
2023-03-12T14:47:44.702Z,4.70
2023-03-12T14:50:17.751Z,4.83
2023-03-12T14:52:44.089Z,4.86
2023-03-12T14:55:15.414Z,4.81
2023-03-12T14:57:41.796Z,4.91
2023-03-12T15:00:16.218Z,4.75
2023-03-12T15:02:43.485Z,4.59
2023-03-12T15:05:16.197Z,4.59
2023-03-12T15:07:42.784Z,4.61
2023-03-12T15:10:18.405Z,4.56
2023-03-12T15:12:45.819Z,4.49
2023-03-12T15:15:26.170Z,4.35
2023-03-12T15:17:52.536Z,4.49
2023-03-12T15:20:20.254Z,4.52
2023-03-12T15:22:46.934Z,4.66
2023-03-12T15:25:26.875Z,4.77
2023-03-12T15:28:05.418Z,4.46
2023-03-12T15:30:32.537Z,4.23
2023-03-12T15:33:08.163Z,4.20
2023-03-12T15:35:35.896Z,4.09
2023-03-12T15:38:02.800Z,4.00
2023-03-12T15:40:29.991Z,3.93
2023-03-12T15:42:59.155Z,4.10
2023-03-12T15:45:30.230Z,4.21
2023-03-12T15:47:56.627Z,4.30
2023-03-12T15:50:22.992Z,3.99
2023-03-12T15:52:59.502Z,4.09
2023-03-12T15:55:29.116Z,3.93
2023-03-12T15:57:56.316Z,3.60
2023-03-12T16:00:24.741Z,3.84
2023-03-12T16:02:51.030Z,3.71
2023-03-12T16:05:18.193Z,3.72
2023-03-12T16:07:44.562Z,3.69
2023-03-12T16:10:13.616Z,3.64
2023-03-12T16:12:40.239Z,3.72
2023-03-12T16:15:06.953Z,3.77
2023-03-12T16:17:33.241Z,3.75
2023-03-12T16:19:59.581Z,3.55
2023-03-12T16:22:25.886Z,3.49
2023-03-12T16:24:52.475Z,3.59
2023-03-12T16:27:31.736Z,3.42
2023-03-12T16:29:58.768Z,3.55
2023-03-12T16:32:25.162Z,3.61
2023-03-12T16:34:51.535Z,3.74
2023-03-12T16:37:17.924Z,3.63
2023-03-12T16:39:46.291Z,3.41
2023-03-12T16:42:17.269Z,3.28
2023-03-12T16:44:46.208Z,3.55
2023-03-12T16:47:12.832Z,3.31
2023-03-12T16:49:39.562Z,3.37
2023-03-12T16:52:16.198Z,3.27
2023-03-12T16:54:42.610Z,3.49
2023-03-12T16:57:13.991Z,3.29
2023-03-12T16:59:40.481Z,3.20
2023-03-12T17:02:15.466Z,3.26
2023-03-12T17:04:41.818Z,3.18
2023-03-12T17:07:08.149Z,3.08
2023-03-12T17:09:34.739Z,2.95
2023-03-12T17:12:01.424Z,3.09
2023-03-12T17:14:29.296Z,3.02
2023-03-12T17:16:55.590Z,2.98
2023-03-12T17:19:21.894Z,3.08
2023-03-12T17:21:48.913Z,3.17
2023-03-12T17:24:15.441Z,3.09
2023-03-12T17:26:42.358Z,3.13
2023-03-12T17:29:08.670Z,3.09
2023-03-12T17:31:37.386Z,3.15
2023-03-12T17:34:04.495Z,3.17
2023-03-12T17:36:30.884Z,3.14
2023-03-12T17:38:57.239Z,3.04
2023-03-12T17:41:27.028Z,3.08
2023-03-12T17:43:54.709Z,3.19
2023-03-12T17:46:21.148Z,3.14
2023-03-12T17:48:47.491Z,3.16
2023-03-12T17:51:13.812Z,3.20
2023-03-12T17:53:41.658Z,3.24
2023-03-12T17:56:08.111Z,2.90
2023-03-12T17:58:34.498Z,3.06
2023-03-12T18:01:00.806Z,3.14
2023-03-12T18:03:27.341Z,3.22
2023-03-12T18:05:53.697Z,3.16
2023-03-12T18:08:20.197Z,3.04
2023-03-12T18:10:47.604Z,3.13
2023-03-12T18:13:13.915Z,2.86
2023-03-12T18:15:41.090Z,3.02
2023-03-12T18:18:07.488Z,2.76
2023-03-12T18:20:39.124Z,3.08
2023-03-12T18:23:06.081Z,3.01
2023-03-12T18:25:32.392Z,2.76
2023-03-12T18:27:58.749Z,2.85
2023-03-12T18:30:25.238Z,2.86
2023-03-12T18:32:51.646Z,2.77
2023-03-12T18:35:18.258Z,2.60
2023-03-12T18:37:45.959Z,2.62
2023-03-12T18:40:12.576Z,2.76
2023-03-12T18:42:44.119Z,2.46
2023-03-12T18:45:13.352Z,2.77
2023-03-12T18:47:39.736Z,2.87
2023-03-12T18:50:07.376Z,2.77
2023-03-12T18:52:33.892Z,2.87
2023-03-12T18:55:00.330Z,2.71
2023-03-12T18:57:26.700Z,2.45
2023-03-12T18:59:53.042Z,2.64
2023-03-12T19:02:19.423Z,2.69
2023-03-12T19:04:45.824Z,2.84
2023-03-12T19:07:12.220Z,2.79
2023-03-12T19:09:38.950Z,2.55
2023-03-12T19:12:05.632Z,2.80
2023-03-12T19:14:32.118Z,2.64
2023-03-12T19:16:58.612Z,2.72
2023-03-12T19:19:25.236Z,2.67
2023-03-12T19:21:51.681Z,2.71
2023-03-12T19:24:18.065Z,2.74
2023-03-12T19:26:44.435Z,2.70
2023-03-12T19:29:10.882Z,2.78
2023-03-12T19:31:37.241Z,2.74
2023-03-12T19:34:03.589Z,2.64
2023-03-12T19:36:29.929Z,2.90
2023-03-12T19:38:56.281Z,2.83
2023-03-12T19:41:22.640Z,2.64
2023-03-12T19:43:49.055Z,2.80
2023-03-12T19:46:15.539Z,2.87
2023-03-12T19:48:41.937Z,2.86
2023-03-12T19:51:09.820Z,2.92
2023-03-12T19:53:36.677Z,2.90
2023-03-12T19:56:03.874Z,2.71
2023-03-12T19:58:30.341Z,2.85
2023-03-12T20:01:00.533Z,3.00
2023-03-12T20:03:27.792Z,2.95
2023-03-12T20:05:54.197Z,2.90
2023-03-12T20:08:21.845Z,2.77
2023-03-12T20:10:48.984Z,2.87
2023-03-12T20:13:17.520Z,2.92
2023-03-12T20:15:48.330Z,3.06
2023-03-12T20:18:15.027Z,3.08
2023-03-12T20:20:41.804Z,3.00
2023-03-12T20:23:08.649Z,3.24
2023-03-12T20:25:38.467Z,3.42
2023-03-12T20:28:04.789Z,3.42
2023-03-12T20:30:31.120Z,3.34
2023-03-12T20:32:57.664Z,3.14
2023-03-12T20:35:24.097Z,3.14
2023-03-12T20:37:50.429Z,3.29
2023-03-12T20:40:16.846Z,3.46
2023-03-12T20:42:43.263Z,3.25
2023-03-12T20:45:09.766Z,3.38
2023-03-12T20:47:37.619Z,3.48
2023-03-12T20:50:04.070Z,3.35
2023-03-12T20:52:30.415Z,3.54
2023-03-12T20:54:56.969Z,3.58
2023-03-12T20:57:23.274Z,3.55
2023-03-12T20:59:49.634Z,3.59
2023-03-12T21:02:16.016Z,3.63
2023-03-12T21:04:42.991Z,3.66
2023-03-12T21:07:09.408Z,3.66
2023-03-12T21:09:35.861Z,3.64
2023-03-12T21:12:02.181Z,3.63
2023-03-12T21:14:28.567Z,3.66
2023-03-12T21:16:54.988Z,3.48
2023-03-12T21:19:21.764Z,3.59
2023-03-12T21:21:48.062Z,3.46
2023-03-12T21:24:14.557Z,3.71
2023-03-12T21:26:40.904Z,3.64
2023-03-12T21:29:07.436Z,3.70
2023-03-12T21:31:33.935Z,3.87
2023-03-12T21:34:00.264Z,3.52
2023-03-12T21:36:26.740Z,3.78
2023-03-12T21:38:53.146Z,3.54
2023-03-12T21:41:19.981Z,3.66
2023-03-12T21:43:46.642Z,3.65
2023-03-12T21:46:17.210Z,3.65
2023-03-12T21:48:44.797Z,3.88
2023-03-12T21:51:12.171Z,3.85
2023-03-12T21:53:38.764Z,3.83
2023-03-12T21:56:05.977Z,3.90
2023-03-12T21:58:32.712Z,3.84
2023-03-12T22:01:04.808Z,3.70
2023-03-12T22:03:31.218Z,3.74
2023-03-12T22:05:57.524Z,3.61
2023-03-12T22:08:23.859Z,3.61
2023-03-12T22:10:50.281Z,3.93
2023-03-12T22:13:16.780Z,3.82
2023-03-12T22:15:46.000Z,4.02
2023-03-12T22:18:12.561Z,4.13
2023-03-12T22:20:38.848Z,3.92
2023-03-12T22:23:05.216Z,3.99
2023-03-12T22:25:35.987Z,3.93
2023-03-12T22:28:02.290Z,3.92
2023-03-12T22:30:28.707Z,3.96
2023-03-12T22:32:55.021Z,3.79
2023-03-12T22:35:25.670Z,3.97
2023-03-12T22:37:52.282Z,3.96
2023-03-12T22:40:18.882Z,4.05
2023-03-12T22:42:52.422Z,4.11
2023-03-12T22:45:19.263Z,4.18
2023-03-12T22:47:45.927Z,4.15
2023-03-12T22:50:12.950Z,4.08
2023-03-12T22:52:39.273Z,4.14
2023-03-12T22:55:06.079Z,4.29
2023-03-12T22:57:36.032Z,4.38
2023-03-12T23:00:02.531Z,4.37
2023-03-12T23:02:28.977Z,4.40
2023-03-12T23:04:55.512Z,4.40
2023-03-12T23:07:22.232Z,4.43
2023-03-12T23:09:48.611Z,4.50
2023-03-12T23:12:15.088Z,4.52
2023-03-12T23:14:41.388Z,4.51
2023-03-12T23:17:08.850Z,4.45
2023-03-12T23:19:35.984Z,4.53
2023-03-12T23:22:02.292Z,4.46
2023-03-12T23:24:31.458Z,4.51
2023-03-12T23:26:57.868Z,4.58
2023-03-12T23:29:24.214Z,4.50
2023-03-12T23:31:50.596Z,4.39
2023-03-12T23:34:16.966Z,4.43
2023-03-12T23:36:44.355Z,4.52
2023-03-12T23:39:10.629Z,4.62
2023-03-12T23:41:37.646Z,4.65
2023-03-12T23:44:04.287Z,4.71
2023-03-12T23:46:30.637Z,4.65
2023-03-12T23:48:57.267Z,4.72
2023-03-12T23:51:25.511Z,4.80
2023-03-12T23:53:54.964Z,4.77
2023-03-12T23:56:22.479Z,4.82
2023-03-12T23:58:49.227Z,4.75
